Time;durP1;ratioP1;P1;durP2;ratioP2;P2;SDS_P1;SDS_P2;PMS_P1;PMS_P2;Temp;Humidity;BMP_temperature;BMP_pressure;BME280_temperature;BME280_humidity;BME280_pressure;Samples;Min_cycle;Max_cycle;Signal;HPM_P1;HPM_P2
2022/12/24 00:00:23;;;;;;;17.52;6.18;;;4.80;99.90;;;;;;5021548;28;20044;-73
2022/12/24 00:02:49;;;;;;;17.38;6.35;;;4.80;99.90;;;;;;5022134;28;20037;-73
2022/12/24 00:05:15;;;;;;;21.38;6.78;;;4.80;99.90;;;;;;5022542;28;20041;-74
2022/12/24 00:07:41;;;;;;;15.80;6.07;;;4.80;99.90;;;;;;5021446;28;20029;-74
2022/12/24 00:10:07;;;;;;;18.17;6.03;;;4.80;99.90;;;;;;5029235;28;20108;-73
2022/12/24 00:12:32;;;;;;;16.15;6.38;;;4.80;99.90;;;;;;5023077;28;20109;-75
2022/12/24 00:14:58;;;;;;;19.83;5.97;;;4.80;99.90;;;;;;5022831;28;20137;-73
2022/12/24 00:17:23;;;;;;;13.85;5.85;;;4.80;99.90;;;;;;5024345;28;20350;-74
2022/12/24 00:19:49;;;;;;;17.25;6.05;;;4.80;99.90;;;;;;5026658;28;20067;-74
2022/12/24 00:22:14;;;;;;;21.15;7.22;;;4.80;99.90;;;;;;5018527;28;20077;-74
2022/12/24 00:24:40;;;;;;;18.40;6.13;;;4.90;99.90;;;;;;5031347;28;20112;-73
2022/12/24 00:27:05;;;;;;;16.83;6.20;;;4.80;99.90;;;;;;5023359;28;20033;-73
2022/12/24 00:29:32;;;;;;;18.10;6.03;;;4.80;99.90;;;;;;5029232;28;20614;-73
2022/12/24 00:31:57;;;;;;;15.82;6.13;;;4.80;99.90;;;;;;5024812;28;20034;-74
2022/12/24 00:34:23;;;;;;;18.55;6.03;;;4.80;99.90;;;;;;5029772;28;20108;-74
2022/12/24 00:36:49;;;;;;;17.30;5.95;;;4.80;99.90;;;;;;5032084;28;20049;-74
2022/12/24 00:39:14;;;;;;;20.50;6.25;;;4.80;99.90;;;;;;5025164;28;20465;-75
2022/12/24 00:41:40;;;;;;;15.40;6.18;;;4.80;99.90;;;;;;5034008;28;20037;-73
2022/12/24 00:44:09;;;;;;;15.98;5.25;;;4.80;99.90;;;;;;5031993;28;20059;-73
2022/12/24 00:46:37;;;;;;;18.63;5.75;;;4.80;99.90;;;;;;5030275;28;20033;-73
2022/12/24 00:49:04;;;;;;;16.90;5.30;;;4.80;99.90;;;;;;5032516;28;20033;-74
2022/12/24 00:51:30;;;;;;;18.73;5.97;;;4.80;99.90;;;;;;5029042;28;20033;-74
2022/12/24 00:53:55;;;;;;;15.38;5.78;;;4.80;99.90;;;;;;5024632;28;20387;-73
2022/12/24 00:56:22;;;;;;;15.75;5.53;;;4.80;99.90;;;;;;5027591;28;20140;-75
2022/12/24 00:58:47;;;;;;;19.55;5.78;;;4.80;99.90;;;;;;5033500;28;20034;-73
2022/12/24 01:01:13;;;;;;;13.52;5.43;;;4.70;99.90;;;;;;5031530;28;20363;-74
2022/12/24 01:03:39;;;;;;;16.65;6.57;;;4.80;99.90;;;;;;5027466;28;20473;-73
2022/12/24 01:06:10;;;;;;;16.33;5.65;;;4.80;99.90;;;;;;5029225;28;20517;-74
2022/12/24 01:08:36;;;;;;;14.95;5.40;;;4.70;99.90;;;;;;5034271;28;20446;-73
2022/12/24 01:11:04;;;;;;;19.08;5.97;;;4.70;99.90;;;;;;5031000;28;20026;-73
2022/12/24 01:13:29;;;;;;;15.15;6.07;;;4.70;99.90;;;;;;5029875;28;20029;-74
2022/12/24 01:15:55;;;;;;;12.55;5.82;;;4.70;99.90;;;;;;5032196;28;20032;-73
2022/12/24 01:18:21;;;;;;;17.00;5.60;;;4.80;99.90;;;;;;5030707;28;20025;-73
2022/12/24 01:20:56;;;;;;;14.40;5.35;;;4.80;99.90;;;;;;5029272;28;20528;-74
2022/12/24 01:23:21;;;;;;;13.98;5.75;;;4.80;99.90;;;;;;5033024;28;20021;-74
2022/12/24 01:25:47;;;;;;;14.77;5.40;;;4.70;99.90;;;;;;5027239;28;20402;-73
2022/12/24 01:28:12;;;;;;;14.65;5.63;;;4.70;99.90;;;;;;5031438;28;20045;-74
2022/12/24 01:30:40;;;;;;;16.95;5.43;;;4.70;99.90;;;;;;5032547;28;20040;-73
2022/12/24 01:33:05;;;;;;;12.10;5.32;;;4.80;99.90;;;;;;5030363;28;20088;-74
2022/12/24 01:35:30;;;;;;;17.33;5.35;;;4.70;99.90;;;;;;5022836;28;20038;-73
2022/12/24 01:37:56;;;;;;;18.90;5.90;;;4.70;99.90;;;;;;5031873;28;20041;-73
2022/12/24 01:43:22;;;;;;;14.20;5.45;;;4.70;99.90;;;;;;5032745;28;20448;-73
2022/12/24 01:45:55;;;;;;;15.45;6.13;;;4.80;99.90;;;;;;5030307;28;20470;-73
2022/12/24 01:48:30;;;;;;;15.85;6.38;;;4.80;99.90;;;;;;5026929;28;20064;-73
2022/12/24 01:51:14;;;;;;;15.85;5.60;;;4.70;99.90;;;;;;5024547;28;20115;-73
2022/12/24 01:53:43;;;;;;;14.63;5.28;;;4.70;99.90;;;;;;5026734;28;20483;-73
2022/12/24 01:56:10;;;;;;;12.55;5.63;;;4.70;99.90;;;;;;5027209;28;20026;-73
2022/12/24 01:58:38;;;;;;;18.50;5.65;;;4.70;99.90;;;;;;5029154;28;20033;-73
2022/12/24 02:01:05;;;;;;;17.55;6.03;;;4.70;99.90;;;;;;5027255;28;20075;-75
2022/12/24 02:03:30;;;;;;;14.70;5.43;;;4.70;99.90;;;;;;5032944;28;20049;-74
2022/12/24 02:05:58;;;;;;;18.92;5.90;;;4.70;99.90;;;;;;5030045;28;20025;-73
2022/12/24 02:08:38;;;;;;;17.95;6.22;;;4.70;99.90;;;;;;5030102;28;20062;-73
2022/12/24 02:11:17;;;;;;;13.85;5.45;;;4.70;99.90;;;;;;5031255;28;20060;-74
2022/12/24 02:13:49;;;;;;;15.27;5.75;;;4.70;99.90;;;;;;5029607;28;20045;-73
2022/12/24 02:16:38;;;;;;;16.98;6.00;;;4.70;99.90;;;;;;5030912;28;20111;-73
2022/12/24 02:19:41;;;;;;;16.92;5.50;;;4.70;99.90;;;;;;5029229;28;20044;-75
2022/12/24 02:22:17;;;;;;;18.55;6.30;;;4.70;99.90;;;;;;5024051;28;20057;-74
2022/12/24 02:25:23;;;;;;;17.08;5.75;;;4.70;99.90;;;;;;5029356;28;20037;-73
2022/12/24 02:27:57;;;;;;;16.13;6.10;;;4.70;99.90;;;;;;5031630;28;20033;-73
2022/12/24 02:30:39;;;;;;;18.30;6.22;;;4.70;99.90;;;;;;5030868;28;20532;-73
2022/12/24 02:33:17;;;;;;;18.00;6.13;;;4.70;99.90;;;;;;5024051;28;20033;-73
2022/12/24 02:36:12;;;;;;;17.17;5.97;;;4.70;99.90;;;;;;5027062;28;20048;-73
2022/12/24 02:38:54;;;;;;;12.63;5.15;;;4.60;99.90;;;;;;5028177;28;20033;-73
2022/12/24 02:41:27;;;;;;;14.75;5.57;;;4.70;99.90;;;;;;5028971;28;20060;-73
2022/12/24 02:43:55;;;;;;;12.85;5.30;;;4.60;99.90;;;;;;5029364;28;20056;-73
2022/12/24 02:46:26;;;;;;;15.07;5.88;;;4.60;99.90;;;;;;5023982;28;20033;-73
2022/12/24 02:48:52;;;;;;;14.10;5.47;;;4.70;99.90;;;;;;5012705;28;20068;-73
2022/12/24 02:51:23;;;;;;;15.23;5.68;;;4.60;99.90;;;;;;5019587;28;20107;-73
2022/12/24 02:53:48;;;;;;;;;;;4.70;99.90;;;;;;5026561;28;20048;-73
2022/12/24 02:56:22;;;;;;;12.30;4.57;;;4.70;99.90;;;;;;5028182;28;19909;-73
2022/12/24 02:59:38;;;;;;;13.57;5.20;;;4.60;99.90;;;;;;5029666;28;20075;-74
2022/12/24 03:02:07;;;;;;;13.10;5.70;;;4.60;99.90;;;;;;5009512;28;20520;-73
2022/12/24 03:04:54;;;;;;;15.95;5.57;;;4.60;99.90;;;;;;5023663;28;20045;-73
2022/12/24 03:07:33;;;;;;;15.40;4.60;;;4.60;99.90;;;;;;5028930;28;20461;-74
2022/12/24 03:10:19;;;;;;;18.10;5.10;;;4.60;99.90;;;;;;5028728;28;20029;-73
2022/12/24 03:12:49;;;;;;;12.85;4.60;;;4.60;99.90;;;;;;5027304;28;20470;-73
2022/12/24 03:15:18;;;;;;;12.38;5.18;;;4.60;99.90;;;;;;5031275;28;20057;-73
2022/12/24 03:17:47;;;;;;;11.95;4.78;;;4.60;99.90;;;;;;5030404;28;20095;-73
2022/12/24 03:20:26;;;;;;;11.25;4.78;;;4.60;99.90;;;;;;5028597;28;20045;-74
2022/12/24 03:22:52;;;;;;;11.55;4.53;;;4.60;99.90;;;;;;5028418;28;20061;-74
2022/12/24 03:25:21;;;;;;;14.65;4.68;;;4.60;99.90;;;;;;5030559;28;20432;-73
2022/12/24 03:27:47;;;;;;;14.75;5.32;;;4.60;99.90;;;;;;5026295;28;20053;-73
2022/12/24 03:30:14;;;;;;;12.00;4.97;;;4.60;99.90;;;;;;5030606;28;20033;-74
2022/12/24 03:32:40;;;;;;;14.80;5.38;;;4.60;99.90;;;;;;5030881;28;20440;-73
2022/12/24 03:35:08;;;;;;;14.02;5.47;;;4.60;99.90;;;;;;5020299;28;20037;-74
2022/12/24 03:37:33;;;;;;;13.90;5.03;;;4.60;99.90;;;;;;5026775;28;20040;-74
2022/12/24 03:39:59;;;;;;;14.13;5.03;;;4.60;99.90;;;;;;5026656;28;20461;-74
2022/12/24 03:42:24;;;;;;;14.55;4.93;;;4.60;99.90;;;;;;5031840;28;20354;-73
2022/12/24 03:44:49;;;;;;;11.43;4.45;;;4.60;99.90;;;;;;5028342;28;20099;-73
2022/12/24 03:47:15;;;;;;;13.07;5.22;;;4.60;99.90;;;;;;5023674;28;20462;-73
2022/12/24 03:49:40;;;;;;;11.00;5.03;;;4.60;99.90;;;;;;5025791;28;20501;-73
2022/12/24 03:52:06;;;;;;;14.52;5.45;;;4.60;99.90;;;;;;5021630;28;20029;-74
2022/12/24 03:54:31;;;;;;;16.05;5.82;;;4.60;99.90;;;;;;5028972;28;20033;-73
2022/12/24 03:56:57;;;;;;;13.18;4.90;;;4.60;99.90;;;;;;5036738;28;20381;-73
2022/12/24 03:59:22;;;;;;;14.90;5.95;;;4.60;99.90;;;;;;5028469;28;20108;-73
2022/12/24 04:01:49;;;;;;;14.40;5.75;;;4.60;99.90;;;;;;5029161;28;20041;-73
2022/12/24 04:04:14;;;;;;;18.45;5.45;;;4.60;99.90;;;;;;5024541;28;20087;-73
2022/12/24 04:06:41;;;;;;;14.10;5.30;;;4.60;99.90;;;;;;5025684;28;20377;-73
2022/12/24 04:09:06;;;;;;;13.50;5.40;;;4.60;99.90;;;;;;5026849;28;20037;-75
2022/12/24 04:11:32;;;;;;;12.18;4.88;;;4.60;99.90;;;;;;5029827;28;20034;-74
2022/12/24 04:13:58;;;;;;;12.75;5.20;;;4.60;99.90;;;;;;5028066;28;21732;-73
2022/12/24 04:16:24;;;;;;;15.23;5.80;;;4.60;99.90;;;;;;5031929;28;20095;-73
2022/12/24 04:18:49;;;;;;;15.52;5.55;;;4.60;99.90;;;;;;5025440;28;20561;-74
2022/12/24 04:21:15;;;;;;;12.88;4.93;;;4.60;99.90;;;;;;5027471;28;20078;-73
2022/12/24 04:23:41;;;;;;;10.38;4.63;;;4.60;99.90;;;;;;5031283;28;20040;-73
2022/12/24 04:26:09;;;;;;;15.20;5.60;;;4.60;99.90;;;;;;5033526;28;20395;-74
2022/12/24 04:28:35;;;;;;;16.92;6.18;;;4.60;99.90;;;;;;5030773;28;20029;-74
2022/12/24 04:31:03;;;;;;;14.43;5.22;;;4.60;99.90;;;;;;5028880;28;20061;-73
2022/12/24 04:33:29;;;;;;;18.35;5.22;;;4.60;99.90;;;;;;5021102;28;20029;-73
2022/12/24 04:35:57;;;;;;;13.82;5.45;;;4.60;99.90;;;;;;5027558;28;20052;-73
2022/12/24 04:38:22;;;;;;;17.02;5.63;;;4.60;99.90;;;;;;5034795;28;20134;-73
2022/12/24 04:40:56;;;;;;;13.40;5.18;;;4.60;99.90;;;;;;5034156;28;20033;-74
2022/12/24 04:43:21;;;;;;;15.10;5.53;;;4.60;99.90;;;;;;5033674;28;20381;-73
2022/12/24 04:45:47;;;;;;;17.15;5.60;;;4.60;99.90;;;;;;5032414;28;20033;-74
2022/12/24 04:48:12;;;;;;;11.43;5.13;;;4.60;99.90;;;;;;5026393;28;20103;-74
2022/12/24 04:50:38;;;;;;;15.90;5.40;;;4.60;99.90;;;;;;5019790;28;20200;-74
2022/12/24 04:53:04;;;;;;;15.27;5.40;;;4.60;99.90;;;;;;5014484;28;20033;-74
2022/12/24 04:55:29;;;;;;;14.93;5.88;;;4.60;99.90;;;;;;5025063;28;20048;-73
2022/12/24 04:57:54;;;;;;;13.57;5.50;;;4.60;99.90;;;;;;5028969;28;20044;-74
2022/12/24 05:00:20;;;;;;;14.57;5.35;;;4.60;99.90;;;;;;5024164;28;20034;-73
2022/12/24 05:02:46;;;;;;;18.70;6.03;;;4.50;99.90;;;;;;5029411;28;20489;-74
2022/12/24 05:05:11;;;;;;;15.00;5.53;;;4.60;99.90;;;;;;5030804;28;20040;-73
2022/12/24 05:07:36;;;;;;;15.38;5.53;;;4.60;99.90;;;;;;5031499;28;20552;-73
2022/12/24 05:10:02;;;;;;;18.55;5.82;;;4.60;99.90;;;;;;5030321;28;20063;-74
2022/12/24 05:12:28;;;;;;;13.43;5.38;;;4.50;99.90;;;;;;5030507;28;20454;-73
2022/12/24 05:14:53;;;;;;;12.32;5.05;;;4.60;99.90;;;;;;5032357;28;20116;-73
2022/12/24 05:17:19;;;;;;;12.15;5.15;;;4.60;99.90;;;;;;5029141;28;20044;-73
2022/12/24 05:19:44;;;;;;;14.75;5.68;;;4.60;99.90;;;;;;5031752;28;20374;-74
2022/12/24 05:27:38;;;;;;;12.57;5.10;;;4.60;99.90;;;;;;5020249;28;20040;-73
2022/12/24 05:30:04;;;;;;;10.95;4.60;;;4.60;99.90;;;;;;5033134;28;20038;-74
2022/12/24 05:32:30;;;;;;;15.63;5.78;;;4.60;99.90;;;;;;5031856;28;20029;-74
2022/12/24 05:34:55;;;;;;;14.48;4.85;;;4.60;99.90;;;;;;5030618;28;20394;-74
2022/12/24 05:37:21;;;;;;;11.40;4.55;;;4.60;99.90;;;;;;5027250;28;20073;-74
2022/12/24 05:39:46;;;;;;;13.05;5.53;;;4.60;99.90;;;;;;5028420;28;20036;-74
2022/12/24 05:42:12;;;;;;;14.68;5.43;;;4.60;99.90;;;;;;5033108;28;20034;-74
2022/12/24 05:44:37;;;;;;;16.42;5.28;;;4.60;99.90;;;;;;5027878;28;20136;-74
2022/12/24 05:47:03;;;;;;;14.38;5.55;;;4.50;99.90;;;;;;5034133;28;20398;-74
2022/12/24 05:49:29;;;;;;;11.52;5.45;;;4.60;99.90;;;;;;5028518;28;20047;-74
2022/12/24 05:51:55;;;;;;;13.38;5.10;;;4.60;99.90;;;;;;5030667;28;20026;-74
2022/12/24 05:54:20;;;;;;;13.95;4.90;;;4.60;99.90;;;;;;5030122;28;20033;-74
2022/12/24 05:56:45;;;;;;;14.32;5.63;;;4.60;99.90;;;;;;5026829;28;20029;-74
2022/12/24 05:59:12;;;;;;;13.07;4.90;;;4.60;99.90;;;;;;5030228;28;20389;-75
2022/12/24 06:01:37;;;;;;;10.73;4.95;;;4.60;99.90;;;;;;5026274;28;20033;-74
2022/12/24 06:04:03;;;;;;;14.73;4.88;;;4.60;99.90;;;;;;5025441;28;20389;-74
2022/12/24 06:06:28;;;;;;;13.25;4.75;;;4.60;99.90;;;;;;5026634;28;20037;-74
2022/12/24 06:08:55;;;;;;;11.77;4.88;;;4.60;99.90;;;;;;5028322;28;20087;-74
2022/12/24 06:11:25;;;;;;;12.07;4.18;;;4.60;99.90;;;;;;5020608;28;20461;-75
2022/12/24 06:13:52;;;;;;;12.27;5.25;;;4.60;99.90;;;;;;5029900;28;20029;-74
2022/12/24 06:16:18;;;;;;;14.52;5.40;;;4.60;99.90;;;;;;5027011;28;20033;-74
2022/12/24 06:18:45;;;;;;;11.10;4.00;;;4.60;99.90;;;;;;5026321;28;20489;-74
2022/12/24 06:21:11;;;;;;;12.82;4.93;;;4.60;99.90;;;;;;5030050;28;20081;-74
2022/12/24 06:23:38;;;;;;;14.68;4.78;;;4.60;99.90;;;;;;5030270;28;20125;-74
2022/12/24 06:26:06;;;;;;;13.48;5.10;;;4.60;99.90;;;;;;5024561;28;20029;-74
2022/12/24 06:28:35;;;;;;;13.38;4.78;;;4.60;99.90;;;;;;5031310;28;20490;-74
2022/12/24 06:31:01;;;;;;;11.77;4.72;;;4.60;99.90;;;;;;5028925;28;20033;-74
2022/12/24 06:33:27;;;;;;;13.15;5.13;;;4.60;99.90;;;;;;5021822;28;20635;-74
2022/12/24 06:35:52;;;;;;;12.05;5.32;;;4.60;99.90;;;;;;5027386;28;20103;-74
2022/12/24 06:38:18;;;;;;;11.35;5.25;;;4.60;99.90;;;;;;5026760;28;20473;-74
2022/12/24 06:40:45;;;;;;;13.02;5.07;;;4.60;99.90;;;;;;5028025;28;20025;-74
2022/12/24 06:43:11;;;;;;;14.45;5.30;;;4.60;99.90;;;;;;5030325;28;20041;-76
2022/12/24 06:45:36;;;;;;;11.82;4.85;;;4.60;99.90;;;;;;5032025;28;20025;-75
2022/12/24 06:48:03;;;;;;;11.48;5.13;;;4.60;99.90;;;;;;5029798;28;20045;-74
2022/12/24 06:50:28;;;;;;;15.35;4.97;;;4.60;99.90;;;;;;5029824;28;20025;-75
2022/12/24 06:52:54;;;;;;;13.30;5.25;;;4.60;99.90;;;;;;5023383;28;20040;-75
2022/12/24 06:55:19;;;;;;;13.88;5.20;;;4.60;99.90;;;;;;5024195;28;20094;-75
2022/12/24 06:57:45;;;;;;;12.63;4.97;;;4.60;99.90;;;;;;5026635;28;20458;-74
2022/12/24 07:00:11;;;;;;;12.85;4.95;;;4.60;99.90;;;;;;5026038;28;20030;-74
2022/12/24 07:02:41;;;;;;;13.75;6.03;;;4.60;99.90;;;;;;5022812;28;20030;-74
2022/12/24 07:05:09;;;;;;;13.93;5.00;;;4.60;99.90;;;;;;5028937;28;20033;-74
2022/12/24 07:07:37;;;;;;;12.50;6.13;;;4.60;99.90;;;;;;5027932;28;20039;-74
2022/12/24 07:10:04;;;;;;;15.38;5.60;;;4.60;99.90;;;;;;5029092;28;20469;-74
2022/12/24 07:12:29;;;;;;;14.57;5.40;;;4.60;99.90;;;;;;5024633;28;20052;-74
2022/12/24 07:14:55;;;;;;;13.45;5.80;;;4.60;99.90;;;;;;5027698;28;20176;-74
2022/12/24 07:17:20;;;;;;;15.18;5.30;;;4.60;99.90;;;;;;5028660;28;20037;-71
2022/12/24 07:19:46;;;;;;;12.13;5.72;;;4.60;99.90;;;;;;5026973;28;20029;-72
2022/12/24 07:22:11;;;;;;;11.95;5.22;;;4.70;99.90;;;;;;5026757;28;20124;-72
2022/12/24 07:24:37;;;;;;;12.07;5.25;;;4.70;99.90;;;;;;5018938;28;20029;-71
2022/12/24 07:27:02;;;;;;;13.07;5.10;;;4.70;99.90;;;;;;5020996;28;20037;-72
2022/12/24 07:29:28;;;;;;;16.95;5.45;;;4.70;99.90;;;;;;5028596;28;20029;-75
2022/12/24 07:31:53;;;;;;;12.02;5.47;;;4.70;99.90;;;;;;5029092;28;20529;-74
2022/12/24 07:34:19;;;;;;;15.45;5.47;;;4.70;99.90;;;;;;5022716;28;20061;-74
2022/12/24 07:36:44;;;;;;;19.02;5.78;;;4.70;99.90;;;;;;5027367;28;20530;-74
2022/12/24 07:39:10;;;;;;;13.45;5.20;;;4.80;99.90;;;;;;5031484;28;20041;-74
2022/12/24 07:41:35;;;;;;;13.68;5.45;;;4.80;99.90;;;;;;5028934;28;20033;-75
2022/12/24 07:44:00;;;;;;;12.55;5.22;;;4.80;99.90;;;;;;5030177;28;20029;-74
2022/12/24 07:46:26;;;;;;;12.15;5.28;;;4.80;99.90;;;;;;5030643;28;20050;-75
2022/12/24 07:48:51;;;;;;;14.25;6.32;;;4.80;99.90;;;;;;5029468;28;20059;-74
2022/12/24 07:51:17;;;;;;;13.32;5.72;;;4.80;99.90;;;;;;5025879;28;20033;-72
2022/12/24 07:53:46;;;;;;;15.82;6.72;;;4.80;99.90;;;;;;5030616;28;20033;-72
2022/12/24 07:56:16;;;;;;;18.13;7.18;;;4.90;99.90;;;;;;5027442;28;20026;-72
2022/12/24 07:58:42;;;;;;;19.85;7.72;;;4.90;99.90;;;;;;5028766;28;20037;-72
2022/12/24 08:01:08;;;;;;;22.65;7.93;;;5.00;99.90;;;;;;5029079;28;20032;-72
2022/12/24 08:03:34;;;;;;;19.60;7.47;;;5.00;99.90;;;;;;5027688;28;20470;-72
2022/12/24 08:05:59;;;;;;;18.50;6.95;;;5.00;99.90;;;;;;5026519;28;20075;-72
2022/12/24 08:08:25;;;;;;;19.67;7.43;;;5.00;99.90;;;;;;5030760;28;20096;-72
2022/12/24 08:10:51;;;;;;;24.48;8.30;;;5.00;99.90;;;;;;5029830;28;21226;-72
2022/12/24 08:13:16;;;;;;;19.55;6.97;;;5.00;99.90;;;;;;5026604;28;20108;-72
2022/12/24 08:15:43;;;;;;;27.17;8.98;;;5.10;99.90;;;;;;5025331;28;20025;-72
2022/12/24 08:18:09;;;;;;;23.05;8.63;;;5.10;99.90;;;;;;5025403;28;20060;-72
2022/12/24 08:20:38;;;;;;;27.48;9.32;;;5.10;99.90;;;;;;5022248;28;20033;-79
2022/12/24 08:23:04;;;;;;;26.45;9.93;;;5.10;99.90;;;;;;5026317;28;20121;-72
2022/12/24 08:25:29;;;;;;;30.15;9.98;;;5.10;99.90;;;;;;5026088;28;20077;-72
2022/12/24 08:27:56;;;;;;;33.38;12.40;;;5.20;99.90;;;;;;5028296;28;20049;-71
2022/12/24 08:30:21;;;;;;;33.45;12.05;;;5.30;99.90;;;;;;5030671;28;20034;-72
2022/12/24 08:32:47;;;;;;;37.90;12.23;;;5.20;99.90;;;;;;5022764;28;20524;-72
2022/12/24 08:35:12;;;;;;;36.70;12.82;;;5.30;99.90;;;;;;5023744;28;20090;-72
2022/12/24 08:37:38;;;;;;;43.35;12.95;;;5.30;99.90;;;;;;5028876;28;20511;-72
2022/12/24 08:40:04;;;;;;;36.42;12.90;;;5.30;99.90;;;;;;5030136;28;20428;-72
2022/12/24 08:42:29;;;;;;;40.85;13.10;;;5.40;99.90;;;;;;5027887;28;20049;-72
2022/12/24 08:44:54;;;;;;;50.15;13.82;;;5.40;99.90;;;;;;5023918;28;20041;-72
2022/12/24 08:47:20;;;;;;;40.33;13.15;;;5.40;99.90;;;;;;5018642;28;20068;-71
2022/12/24 08:49:45;;;;;;;42.53;13.48;;;5.40;99.90;;;;;;5021281;28;20029;-71
2022/12/24 08:52:11;;;;;;;45.97;14.20;;;5.40;99.90;;;;;;5021644;28;20037;-71
2022/12/24 08:54:36;;;;;;;42.50;13.73;;;5.50;99.90;;;;;;5025085;28;20424;-71
2022/12/24 08:57:02;;;;;;;44.22;15.63;;;5.60;99.90;;;;;;5026803;28;20383;-71
2022/12/24 08:59:27;;;;;;;46.75;15.52;;;5.60;99.90;;;;;;5032316;28;20075;-72
2022/12/24 09:01:53;;;;;;;50.22;16.23;;;5.60;99.90;;;;;;5036835;28;20068;-71
2022/12/24 09:04:19;;;;;;;51.03;16.25;;;5.60;99.90;;;;;;5034988;28;20056;-71
2022/12/24 09:06:44;;;;;;;50.95;16.17;;;5.70;99.90;;;;;;5030980;28;20038;-71
2022/12/24 09:09:10;;;;;;;53.65;16.23;;;5.70;99.90;;;;;;5030010;28;20536;-71
2022/12/24 09:11:35;;;;;;;52.00;17.00;;;5.80;99.90;;;;;;5029332;28;20113;-72
2022/12/24 09:14:01;;;;;;;49.22;16.00;;;5.80;99.90;;;;;;5023992;28;22941;-72
2022/12/24 09:16:27;;;;;;;44.58;15.82;;;5.80;99.90;;;;;;5031750;28;20031;-71
2022/12/24 09:18:52;;;;;;;52.90;17.05;;;5.90;99.90;;;;;;5031241;28;20624;-76
2022/12/24 09:21:18;;;;;;;50.67;16.35;;;5.90;99.90;;;;;;5027050;28;20061;-73
2022/12/24 09:23:46;;;;;;;50.83;17.95;;;6.00;99.90;;;;;;5031345;28;20356;-73
2022/12/24 09:26:17;;;;;;;56.75;17.95;;;6.00;99.90;;;;;;5024143;28;20035;-74
2022/12/24 09:28:42;;;;;;;61.95;16.63;;;6.00;99.90;;;;;;5021150;28;20059;-73
2022/12/24 09:31:09;;;;;;;55.13;18.13;;;6.10;99.90;;;;;;5028306;28;20091;-73
2022/12/24 09:33:36;;;;;;;57.50;18.77;;;6.10;99.90;;;;;;5032475;28;20123;-73
2022/12/24 09:36:03;;;;;;;63.47;18.77;;;6.10;99.90;;;;;;5030035;28;20044;-74
2022/12/24 09:38:29;;;;;;;57.95;18.40;;;6.20;99.90;;;;;;5028610;28;20394;-74
2022/12/24 09:40:55;;;;;;;57.60;18.83;;;6.30;99.90;;;;;;5032083;28;20025;-74
2022/12/24 09:43:30;;;;;;;55.47;18.35;;;6.30;99.90;;;;;;5028531;28;20029;-74
2022/12/24 09:46:07;;;;;;;58.95;19.23;;;6.30;99.90;;;;;;5023384;28;20060;-74
2022/12/24 09:48:38;;;;;;;67.80;20.83;;;6.40;99.90;;;;;;5030684;28;20033;-74
2022/12/24 09:51:14;;;;;;;66.73;18.73;;;6.30;99.90;;;;;;5028654;28;20041;-74
2022/12/24 09:53:46;;;;;;;56.25;18.23;;;6.30;99.90;;;;;;5030453;28;20037;-74
2022/12/24 09:56:17;;;;;;;59.95;16.83;;;6.30;99.90;;;;;;5030262;28;20057;-74
2022/12/24 09:58:47;;;;;;;55.53;19.42;;;6.40;99.90;;;;;;5027541;28;20812;-74
2022/12/24 10:01:16;;;;;;;54.70;18.37;;;6.50;99.90;;;;;;5029503;28;20121;-74
2022/12/24 10:03:42;;;;;;;57.30;18.05;;;6.50;99.90;;;;;;5027104;28;20298;-74
2022/12/24 10:06:21;;;;;;;51.90;16.30;;;6.60;99.90;;;;;;5029431;28;20037;-74
2022/12/24 10:09:09;;;;;;;60.30;18.25;;;6.70;99.90;;;;;;5023988;28;20030;-75
2022/12/24 10:11:37;;;;;;;53.85;17.17;;;6.80;99.90;;;;;;5030685;28;20033;-74
2022/12/24 10:14:25;;;;;;;53.80;16.75;;;7.00;99.90;;;;;;5020991;28;20057;-74
2022/12/24 10:17:05;;;;;;;51.72;15.95;;;7.10;99.90;;;;;;5023438;28;20487;-74
2022/12/24 10:20:00;;;;;;;51.60;15.90;;;7.20;99.90;;;;;;5030309;28;20393;-75
2022/12/24 10:22:55;;;;;;;47.75;13.85;;;7.20;99.90;;;;;;5026845;28;20049;-75
2022/12/24 10:25:48;;;;;;;43.92;14.65;;;7.30;99.90;;;;;;5030746;28;20525;-72
2022/12/24 10:28:17;;;;;;;57.47;14.60;;;7.30;99.90;;;;;;5032653;28;20041;-72
2022/12/24 10:30:47;;;;;;;48.72;13.05;;;7.30;99.90;;;;;;5024505;28;20060;-73
2022/12/24 10:33:19;;;;;;;49.30;12.85;;;7.40;99.90;;;;;;5032602;28;20024;-72
2022/12/24 10:35:49;;;;;;;47.65;13.15;;;7.40;99.90;;;;;;5028794;28;20039;-73
2022/12/24 10:38:15;;;;;;;56.25;12.63;;;7.50;99.90;;;;;;5031254;28;20433;-72
2022/12/24 10:40:45;;;;;;;46.13;12.20;;;7.50;99.90;;;;;;5031539;28;20040;-71
2022/12/24 10:43:16;;;;;;;49.17;11.52;;;7.60;99.90;;;;;;5028552;28;20486;-71
2022/12/24 10:45:46;;;;;;;53.35;12.55;;;7.70;99.90;;;;;;5030704;28;20539;-71
2022/12/24 10:48:42;;;;;;;42.17;11.05;;;7.80;99.90;;;;;;5031585;28;20039;-71
2022/12/24 10:51:42;;;;;;;41.83;10.07;;;7.80;99.90;;;;;;5012861;28;20061;-71
2022/12/24 10:54:14;;;;;;;37.15;10.18;;;7.90;99.90;;;;;;5012259;28;20049;-71
2022/12/24 10:56:51;;;;;;;48.58;10.93;;;8.00;99.90;;;;;;5031742;28;20462;-71
2022/12/24 10:59:29;;;;;;;45.50;11.63;;;8.00;99.90;;;;;;5031331;28;20116;-72
2022/12/24 11:01:56;;;;;;;41.40;10.27;;;8.10;99.90;;;;;;5030559;28;20036;-71
2022/12/24 11:04:25;;;;;;;40.72;11.77;;;8.10;99.90;;;;;;5025340;28;20475;-74
2022/12/24 11:07:02;;;;;;;42.40;10.70;;;8.30;99.90;;;;;;5027627;28;20104;-69
2022/12/24 11:09:33;;;;;;;46.08;10.73;;;8.50;99.90;;;;;;5019418;28;20389;-70
2022/12/24 11:12:02;;;;;;;40.45;10.00;;;8.50;99.90;;;;;;5028859;28;20036;-71
2022/12/24 11:14:33;;;;;;;41.70;10.82;;;8.60;99.90;;;;;;5031321;28;20029;-70
2022/12/24 11:16:59;;;;;;;32.67;9.98;;;8.70;99.90;;;;;;5029074;28;20030;-74
2022/12/24 11:19:34;;;;;;;33.03;10.52;;;8.70;99.90;;;;;;5028302;28;20033;-71
2022/12/24 11:22:23;;;;;;;40.47;10.07;;;8.80;99.90;;;;;;5027209;28;20128;-73
2022/12/24 11:25:22;;;;;;;36.13;9.32;;;9.00;99.90;;;;;;5030103;28;20476;-71
2022/12/24 11:27:50;;;;;;;30.13;8.88;;;8.90;99.50;;;;;;5020940;28;20057;-72
2022/12/24 11:30:15;;;;;;;36.83;8.70;;;8.90;99.50;;;;;;5029239;28;20104;-72
2022/12/24 11:32:49;;;;;;;32.03;7.35;;;8.80;99.40;;;;;;5028838;28;20171;-69
2022/12/24 11:35:20;;;;;;;35.38;7.95;;;8.80;99.50;;;;;;5024010;28;20123;-71
2022/12/24 11:37:46;;;;;;;;;;;8.70;99.40;;;;;;5027269;28;20034;-70
2022/12/24 11:40:25;;;;;;;22.73;7.00;;;8.70;99.50;;;;;;5029703;28;19909;-71
2022/12/24 11:42:52;;;;;;;34.53;6.75;;;8.60;99.40;;;;;;5027812;28;20037;-71
2022/12/24 11:45:28;;;;;;;33.33;7.10;;;8.60;99.50;;;;;;5024282;28;20044;-71
2022/12/24 11:47:54;;;;;;;28.45;6.82;;;8.50;99.50;;;;;;5032610;28;20052;-71
2022/12/24 11:50:34;;;;;;;36.97;7.43;;;8.50;99.50;;;;;;5024214;28;20041;-72
2022/12/24 11:53:09;;;;;;;27.50;6.70;;;8.50;99.20;;;;;;5025359;28;20033;-72
2022/12/24 11:55:44;;;;;;;32.50;6.55;;;8.50;99.30;;;;;;5024915;28;20032;-71
2022/12/24 11:58:43;;;;;;;30.00;6.10;;;8.40;98.90;;;;;;5030593;28;20072;-72
2022/12/24 12:01:30;;;;;;;26.75;5.90;;;8.40;98.50;;;;;;5022708;28;20025;-71
2022/12/24 12:03:59;;;;;;;23.02;4.80;;;8.40;98.50;;;;;;5026632;28;20036;-72
2022/12/24 12:06:41;;;;;;;26.65;4.95;;;8.40;98.10;;;;;;5025503;28;20025;-72
2022/12/24 12:09:13;;;;;;;31.42;6.32;;;8.50;98.10;;;;;;5030463;28;20124;-72
2022/12/24 12:11:43;;;;;;;27.58;5.10;;;8.70;98.20;;;;;;5029441;28;20025;-72
2022/12/24 12:14:19;;;;;;;19.15;5.50;;;8.90;97.80;;;;;;5027475;28;20029;-72
2022/12/24 12:17:00;;;;;;;29.58;4.97;;;9.00;97.80;;;;;;5024395;28;20382;-72
2022/12/24 12:19:27;;;;;;;;;;;9.10;97.20;;;;;;5026774;28;20029;-72
2022/12/24 12:21:52;;;;;;;23.67;4.60;;;9.10;97.00;;;;;;5029119;28;20308;-72
2022/12/24 12:24:34;;;;;;;31.92;5.15;;;9.20;96.50;;;;;;5029968;28;20041;-72
2022/12/24 12:27:15;;;;;;;23.20;4.38;;;9.30;96.40;;;;;;5031036;28;20474;-72
2022/12/24 12:29:51;;;;;;;18.70;3.77;;;9.20;96.40;;;;;;5030507;28;20422;-72
2022/12/24 12:32:55;;;;;;;22.52;4.38;;;9.10;96.10;;;;;;5031186;28;20469;-72
2022/12/24 12:35:37;;;;;;;24.55;4.88;;;9.10;96.20;;;;;;4978446;28;20503;-71
2022/12/24 12:38:12;;;;;;;20.85;4.50;;;9.10;96.40;;;;;;5033484;28;20033;-71
2022/12/24 12:40:52;;;;;;;21.35;3.92;;;9.10;96.60;;;;;;5028841;28;20411;-70
2022/12/24 12:43:31;;;;;;;27.10;4.10;;;9.10;96.70;;;;;;5028332;28;20030;-70
2022/12/24 12:46:12;;;;;;;28.75;4.78;;;9.00;96.70;;;;;;5026936;28;20045;-69
2022/12/24 12:48:59;;;;;;;24.13;4.65;;;9.00;96.80;;;;;;5027991;28;20040;-72
2022/12/24 12:51:44;;;;;;;20.15;4.32;;;8.90;97.10;;;;;;5028889;28;20370;-72
2022/12/24 12:54:52;;;;;;;28.65;5.20;;;8.80;97.30;;;;;;5032390;28;20030;-72
2022/12/24 12:57:23;;;;;;;24.95;4.90;;;8.60;97.60;;;;;;5020952;28;20025;-72
2022/12/24 12:59:51;;;;;;;;;;;8.50;97.90;;;;;;5025091;28;20428;-72
2022/12/24 13:02:38;;;;;;;31.45;5.57;;;8.40;98.10;;;;;;5025339;28;19905;-72
2022/12/24 13:05:41;;;;;;;26.73;5.47;;;8.40;98.30;;;;;;5022699;28;20124;-72
2022/12/24 13:08:41;;;;;;;22.65;5.43;;;8.50;98.40;;;;;;5017502;28;20044;-72